createdAt,value
2023-02-05T00:00:43.725Z,4.43
2023-02-05T00:04:07.564Z,4.97
2023-02-05T00:07:31.363Z,6.70
2023-02-05T00:10:56.404Z,5.83
2023-02-05T00:14:20.276Z,5.93
2023-02-05T00:17:43.975Z,4.20
2023-02-05T00:21:09.301Z,4.00
2023-02-05T00:24:33.137Z,5.90
2023-02-05T00:27:57.985Z,5.20
2023-02-05T00:31:24.064Z,4.17
2023-02-05T00:34:47.907Z,6.27
2023-02-05T00:38:11.572Z,6.57
2023-02-05T00:41:36.617Z,8.00
2023-02-05T00:45:05.108Z,5.93
2023-02-05T00:48:28.807Z,6.03
2023-02-05T00:51:52.222Z,8.07
2023-02-05T00:55:15.991Z,5.87
2023-02-05T00:58:39.720Z,5.50
2023-02-05T01:02:04.818Z,4.47
2023-02-05T01:05:30.658Z,4.30
2023-02-05T01:08:54.792Z,5.00
2023-02-05T01:12:18.259Z,3.17
2023-02-05T01:15:42.266Z,3.80
2023-02-05T01:19:07.415Z,4.43
2023-02-05T01:22:31.241Z,5.87
2023-02-05T01:25:55.063Z,4.50
2023-02-05T01:29:18.523Z,5.57
2023-02-05T01:32:42.545Z,4.27
2023-02-05T01:36:08.064Z,5.30
2023-02-05T01:39:31.790Z,4.07
2023-02-05T01:42:55.580Z,5.30
2023-02-05T01:46:26.989Z,3.70
2023-02-05T01:49:58.771Z,4.60
2023-02-05T01:53:30.816Z,3.80
2023-02-05T01:57:03.197Z,4.70
2023-02-05T02:00:27.079Z,4.83
2023-02-05T02:03:52.674Z,5.97
2023-02-05T02:07:20.747Z,3.90
2023-02-05T02:10:47.211Z,3.10
2023-02-05T02:14:12.989Z,6.30
2023-02-05T02:17:42.208Z,5.03
2023-02-05T02:21:40.228Z,4.73
2023-02-05T02:25:32.802Z,4.67
2023-02-05T02:29:03.505Z,5.80
2023-02-05T02:32:39.556Z,4.60
2023-02-05T02:36:10.084Z,6.33
2023-02-05T02:39:39.013Z,5.73
2023-02-05T02:43:10.176Z,4.83
2023-02-05T02:46:41.416Z,5.47
2023-02-05T02:50:11.204Z,5.80
2023-02-05T02:53:39.231Z,6.10
2023-02-05T02:57:07.331Z,6.10
2023-02-05T03:00:32.707Z,4.37
2023-02-05T03:04:05.589Z,5.00
2023-02-05T03:07:34.687Z,4.30
2023-02-05T03:11:03.033Z,6.70
2023-02-05T03:14:27.899Z,6.87
2023-02-05T03:17:56.529Z,4.70
2023-02-05T03:21:26.624Z,6.13
2023-02-05T03:24:51.619Z,4.37
2023-02-05T03:28:16.740Z,4.50
2023-02-05T03:31:50.609Z,5.70
2023-02-05T03:35:28.683Z,4.93
2023-02-05T03:39:19.340Z,5.77
2023-02-05T03:42:50.167Z,4.50
2023-02-05T03:46:22.740Z,5.67
2023-02-05T03:50:00.156Z,6.83
2023-02-05T03:53:34.990Z,5.70
2023-02-05T03:57:09.729Z,7.03
2023-02-05T04:00:36.833Z,6.67
2023-02-05T04:04:00.706Z,3.70
2023-02-05T04:07:25.281Z,5.67
2023-02-05T04:10:49.205Z,4.13
2023-02-05T04:14:14.157Z,5.00
2023-02-05T04:17:40.377Z,5.97
2023-02-05T04:21:06.011Z,8.00
2023-02-05T04:24:33.257Z,5.50
2023-02-05T04:27:57.282Z,3.57
2023-02-05T04:31:22.307Z,4.83
2023-02-05T04:34:47.407Z,5.87
2023-02-05T04:38:11.935Z,5.40
2023-02-05T04:41:35.838Z,6.10
2023-02-05T04:45:00.217Z,4.80
2023-02-05T04:48:25.586Z,5.37
2023-02-05T04:51:49.482Z,4.20
2023-02-05T04:55:13.044Z,4.70
2023-02-05T04:58:37.290Z,4.30
2023-02-05T05:02:01.117Z,6.23
2023-02-05T05:05:26.111Z,3.70
2023-02-05T05:08:49.700Z,5.33
2023-02-05T05:12:13.555Z,5.43
2023-02-05T05:15:37.445Z,6.20
2023-02-05T05:19:01.134Z,4.87
2023-02-05T05:22:26.322Z,9.63
2023-02-05T05:25:50.435Z,6.90
2023-02-05T05:29:15.005Z,11.13
2023-02-05T05:32:38.801Z,5.00
2023-02-05T05:36:02.855Z,3.50
2023-02-05T05:39:45.431Z,3.40
2023-02-05T05:43:29.882Z,4.13
2023-02-05T05:46:53.757Z,9.93
2023-02-05T05:50:18.312Z,4.23
2023-02-05T05:53:42.140Z,3.40
2023-02-05T05:57:09.355Z,4.30
2023-02-05T06:00:33.438Z,7.27
2023-02-05T06:03:57.268Z,4.17
2023-02-05T06:07:21.659Z,4.83
2023-02-05T06:10:45.836Z,5.03
2023-02-05T06:14:10.728Z,6.40
2023-02-05T06:17:34.279Z,4.97
2023-02-05T06:20:57.870Z,4.03
2023-02-05T06:24:22.030Z,5.30
2023-02-05T06:27:46.108Z,5.80
2023-02-05T06:31:11.159Z,5.57
2023-02-05T06:34:34.997Z,5.30
2023-02-05T06:37:58.865Z,6.00
2023-02-05T06:41:22.315Z,4.93
2023-02-05T06:44:46.149Z,9.67
2023-02-05T06:48:11.317Z,5.27
2023-02-05T06:51:35.326Z,5.33
2023-02-05T06:54:59.279Z,5.80
2023-02-05T06:58:23.107Z,6.43
2023-02-05T07:01:46.595Z,4.93
2023-02-05T07:05:11.766Z,6.80
2023-02-05T07:08:36.353Z,6.90
2023-02-05T07:11:59.847Z,6.00
2023-02-05T07:15:23.353Z,5.37
2023-02-05T07:18:47.245Z,5.50
2023-02-05T07:22:15.195Z,5.80
2023-02-05T07:25:38.997Z,5.73
2023-02-05T07:29:03.098Z,5.27
2023-02-05T07:32:26.936Z,5.63
2023-02-05T07:35:50.381Z,6.33
2023-02-05T07:39:15.983Z,4.13
2023-02-05T07:42:39.859Z,5.27
2023-02-05T07:46:08.256Z,4.10
2023-02-05T07:49:31.745Z,6.87
2023-02-05T07:52:55.574Z,5.17
2023-02-05T07:56:22.481Z,5.90
2023-02-05T07:59:46.299Z,5.87
2023-02-05T08:03:10.201Z,3.70
2023-02-05T08:06:34.542Z,6.03
2023-02-05T08:09:59.049Z,4.70
2023-02-05T08:13:24.539Z,5.53
2023-02-05T08:16:48.410Z,9.57
2023-02-05T08:20:13.409Z,4.00
2023-02-05T08:23:37.611Z,5.43
2023-02-05T08:27:01.225Z,3.27
2023-02-05T08:30:26.619Z,5.90
2023-02-05T08:33:54.711Z,6.40
2023-02-05T08:37:18.543Z,5.03
2023-02-05T08:40:42.424Z,5.40
2023-02-05T08:44:06.633Z,4.80
2023-02-05T08:47:32.521Z,4.13
2023-02-05T08:50:59.150Z,4.40
2023-02-05T08:54:23.108Z,6.87
2023-02-05T08:57:47.393Z,4.57
2023-02-05T09:01:14.197Z,5.70
2023-02-05T09:04:40.488Z,4.13
2023-02-05T09:08:04.412Z,4.50
2023-02-05T09:11:28.150Z,4.90
2023-02-05T09:14:51.661Z,4.87
2023-02-05T09:18:15.664Z,3.60
2023-02-05T09:21:41.862Z,6.53
2023-02-05T09:25:06.454Z,3.93
2023-02-05T09:28:30.147Z,3.87
2023-02-05T09:31:54.064Z,6.23
2023-02-05T09:35:18.168Z,4.10
2023-02-05T09:38:45.532Z,3.10
2023-02-05T09:42:17.079Z,4.20
2023-02-05T09:45:57.475Z,4.17
2023-02-05T09:49:29.678Z,3.90
2023-02-05T09:53:01.762Z,3.90
2023-02-05T09:56:29.289Z,4.97
2023-02-05T09:59:54.305Z,5.07
2023-02-05T10:03:29.024Z,6.40
2023-02-05T10:07:19.792Z,8.53
2023-02-05T10:10:49.236Z,5.37
2023-02-05T10:14:27.553Z,8.10
2023-02-05T10:18:03.331Z,5.60
2023-02-05T10:21:50.253Z,7.90
2023-02-05T10:25:35.828Z,5.83
2023-02-05T10:29:21.398Z,5.33
2023-02-05T10:32:56.486Z,6.07
2023-02-05T10:36:24.141Z,7.50
2023-02-05T10:39:49.970Z,5.67
2023-02-05T10:43:25.348Z,5.43
2023-02-05T10:46:55.140Z,7.00
2023-02-05T10:50:26.503Z,5.37
2023-02-05T10:53:50.894Z,5.40
2023-02-05T10:57:18.791Z,4.00
2023-02-05T11:00:42.769Z,7.87
2023-02-05T11:04:12.833Z,6.40
2023-02-05T11:07:44.462Z,3.90
2023-02-05T11:11:20.609Z,4.00
2023-02-05T11:14:49.018Z,4.57
2023-02-05T11:18:24.703Z,3.87
2023-02-05T11:21:56.702Z,4.37
2023-02-05T11:25:26.407Z,3.80
2023-02-05T11:28:50.740Z,5.67
2023-02-05T11:32:32.213Z,4.10
2023-02-05T11:35:59.487Z,4.33
2023-02-05T11:39:34.174Z,3.23
2023-02-05T11:43:03.609Z,4.67
2023-02-05T11:46:30.636Z,3.17
2023-02-05T11:49:55.312Z,6.03
2023-02-05T11:53:21.885Z,5.27
2023-02-05T11:57:02.073Z,3.70
2023-02-05T12:00:26.918Z,3.80
2023-02-05T12:04:00.709Z,3.57
2023-02-05T12:07:29.968Z,3.60
2023-02-05T12:11:01.965Z,6.13
2023-02-05T12:14:37.862Z,3.70
2023-02-05T12:18:12.435Z,3.67
2023-02-05T12:21:49.021Z,3.63
2023-02-05T12:25:20.687Z,5.13
2023-02-05T12:28:55.953Z,3.20
2023-02-05T12:32:38.262Z,3.37
2023-02-05T12:36:17.024Z,4.77
2023-02-05T12:39:47.936Z,5.50
2023-02-05T12:43:31.840Z,6.47
2023-02-05T12:47:15.958Z,5.10
2023-02-05T12:50:59.966Z,3.40
2023-02-05T12:54:51.314Z,5.10
2023-02-05T12:58:19.031Z,4.77
2023-02-05T13:01:50.406Z,4.37
2023-02-05T13:05:22.099Z,4.40
2023-02-05T13:08:52.510Z,3.60
2023-02-05T13:12:23.255Z,3.73
2023-02-05T13:15:58.891Z,4.57
2023-02-05T13:19:29.526Z,4.30
2023-02-05T13:23:16.132Z,4.00
2023-02-05T13:27:02.531Z,3.27
2023-02-05T13:30:35.019Z,4.27
2023-02-05T13:34:05.607Z,4.60
2023-02-05T13:37:54.939Z,5.10
2023-02-05T13:41:54.925Z,3.23
2023-02-05T13:45:42.320Z,3.57
2023-02-05T13:49:34.322Z,5.20
2023-02-05T13:53:15.307Z,5.30
2023-02-05T13:56:49.642Z,8.20
2023-02-05T14:00:15.612Z,4.73
2023-02-05T14:03:44.884Z,5.13
2023-02-05T14:07:16.759Z,4.23
2023-02-05T14:10:45.842Z,3.63
2023-02-05T14:14:28.245Z,4.00
2023-02-05T14:17:56.376Z,2.67
2023-02-05T14:22:07.359Z,2.77
2023-02-05T14:26:12.678Z,2.73
2023-02-05T14:29:43.490Z,2.27
2023-02-05T14:33:29.903Z,3.23
2023-02-05T14:36:55.253Z,3.60
2023-02-05T14:40:32.660Z,4.33
2023-02-05T14:44:00.923Z,4.37
2023-02-05T14:47:32.939Z,3.03
2023-02-05T14:51:07.801Z,4.90
2023-02-05T14:54:36.170Z,3.53
2023-02-05T14:58:04.141Z,2.10
2023-02-05T15:01:43.608Z,2.03
2023-02-05T15:05:21.090Z,2.13
2023-02-05T15:08:50.761Z,2.40
2023-02-05T15:12:55.498Z,2.13
2023-02-05T15:16:22.987Z,3.10
2023-02-05T15:19:54.341Z,2.53
2023-02-05T15:23:35.076Z,2.40
2023-02-05T15:27:04.775Z,2.30
2023-02-05T15:30:34.695Z,2.70
2023-02-05T15:34:07.371Z,3.30
2023-02-05T15:37:37.424Z,2.10
2023-02-05T15:41:08.231Z,3.03
2023-02-05T15:44:33.808Z,3.20
2023-02-05T15:48:03.011Z,2.30
2023-02-05T15:51:32.880Z,2.43
2023-02-05T15:55:02.417Z,1.73
2023-02-05T15:58:28.897Z,1.60
2023-02-05T16:02:03.005Z,2.30
2023-02-05T16:05:29.150Z,2.23
2023-02-05T16:08:54.331Z,3.00
2023-02-05T16:12:18.417Z,2.13
2023-02-05T16:15:50.005Z,2.20
2023-02-05T16:19:19.873Z,2.30
2023-02-05T16:22:46.528Z,2.10
2023-02-05T16:26:18.020Z,3.10
2023-02-05T16:29:48.203Z,2.50
2023-02-05T16:33:30.774Z,4.20
2023-02-05T16:36:58.145Z,3.27
2023-02-05T16:40:35.572Z,2.10
2023-02-05T16:44:03.738Z,3.43
2023-02-05T16:47:28.361Z,2.63
2023-02-05T16:50:56.680Z,2.97
2023-02-05T16:54:28.822Z,2.53
2023-02-05T16:57:53.927Z,3.20
2023-02-05T17:01:24.264Z,3.03
2023-02-05T17:04:55.206Z,2.57
2023-02-05T17:08:30.751Z,2.70
2023-02-05T17:11:54.927Z,4.60
2023-02-05T17:15:32.514Z,3.90
2023-02-05T17:18:59.690Z,3.30
2023-02-05T17:22:23.579Z,3.73
2023-02-05T17:25:55.784Z,4.23
2023-02-05T17:29:19.839Z,3.53
2023-02-05T17:32:44.515Z,3.10
2023-02-05T17:36:16.017Z,4.90
2023-02-05T17:39:40.238Z,4.10
2023-02-05T17:43:05.300Z,3.83
2023-02-05T17:46:29.465Z,4.03
2023-02-05T17:49:53.346Z,3.60
2023-02-05T17:53:17.496Z,3.40
2023-02-05T17:56:44.405Z,2.80
2023-02-05T18:00:13.224Z,2.83
2023-02-05T18:03:37.266Z,2.57
2023-02-05T18:07:01.386Z,3.30
2023-02-05T18:10:28.103Z,3.57
2023-02-05T18:13:52.091Z,2.90
2023-02-05T18:17:17.367Z,3.00
2023-02-05T18:20:41.262Z,3.10
2023-02-05T18:24:05.787Z,2.60
2023-02-05T18:27:30.738Z,2.80
2023-02-05T18:31:00.471Z,2.10
2023-02-05T18:34:26.690Z,2.50
2023-02-05T18:37:50.799Z,2.60
2023-02-05T18:41:21.667Z,3.03
2023-02-05T18:44:45.579Z,4.10
2023-02-05T18:48:10.486Z,2.60
2023-02-05T18:51:35.611Z,1.80
2023-02-05T18:54:59.825Z,2.60
2023-02-05T18:58:24.378Z,2.43
2023-02-05T19:02:03.381Z,3.10
2023-02-05T19:05:27.281Z,2.70
2023-02-05T19:08:54.564Z,1.97
2023-02-05T19:12:18.939Z,3.30
2023-02-05T19:15:42.862Z,2.43
2023-02-05T19:19:40.701Z,2.80
2023-02-05T19:23:12.028Z,2.87
2023-02-05T19:26:39.338Z,3.00
2023-02-05T19:30:03.248Z,2.77
2023-02-05T19:33:27.323Z,2.90
2023-02-05T19:36:51.180Z,3.53
2023-02-05T19:40:15.366Z,3.07
2023-02-05T19:43:41.024Z,3.67
2023-02-05T19:47:05.217Z,3.33
2023-02-05T19:50:28.693Z,3.43
2023-02-05T19:53:52.389Z,4.00
2023-02-05T19:57:16.374Z,3.27
2023-02-05T20:00:41.381Z,2.97
2023-02-05T20:04:11.408Z,3.70
2023-02-05T20:07:38.313Z,3.40
2023-02-05T20:11:04.300Z,3.70
2023-02-05T20:14:28.797Z,4.20
2023-02-05T20:17:56.560Z,3.83
2023-02-05T20:21:22.033Z,4.00
2023-02-05T20:24:47.346Z,3.60
2023-02-05T20:28:12.078Z,3.93
2023-02-05T20:31:43.568Z,5.20
2023-02-05T20:35:12.214Z,5.20
2023-02-05T20:38:37.252Z,4.97
2023-02-05T20:42:02.344Z,4.67
2023-02-05T20:45:28.058Z,5.83
2023-02-05T20:48:52.732Z,4.67
2023-02-05T20:52:17.940Z,4.77
2023-02-05T20:55:44.020Z,4.63
2023-02-05T20:59:11.214Z,4.20
2023-02-05T21:02:35.492Z,4.57
2023-02-05T21:06:00.184Z,5.67
2023-02-05T21:09:25.707Z,5.03
2023-02-05T21:12:49.722Z,5.00
2023-02-05T21:16:15.114Z,5.30
2023-02-05T21:19:40.762Z,4.67
2023-02-05T21:23:04.993Z,5.40
2023-02-05T21:26:32.647Z,4.20
2023-02-05T21:29:56.918Z,4.90
2023-02-05T21:33:20.972Z,5.20
2023-02-05T21:36:46.018Z,5.33
2023-02-05T21:40:11.615Z,4.43
2023-02-05T21:43:36.954Z,4.47
2023-02-05T21:47:00.809Z,5.63
2023-02-05T21:50:24.971Z,6.00
2023-02-05T21:53:52.107Z,6.23
2023-02-05T21:57:15.975Z,5.30
2023-02-05T22:00:40.966Z,5.57
2023-02-05T22:04:09.957Z,4.97
2023-02-05T22:07:33.858Z,6.10
2023-02-05T22:11:03.221Z,6.70
2023-02-05T22:14:26.892Z,6.60
2023-02-05T22:17:52.607Z,6.73
2023-02-05T22:21:18.855Z,7.93
2023-02-05T22:24:42.727Z,6.37
2023-02-05T22:28:07.050Z,5.77
2023-02-05T22:31:31.847Z,6.87
2023-02-05T22:34:56.751Z,7.20
2023-02-05T22:38:20.618Z,6.97
2023-02-05T22:41:44.787Z,6.40
2023-02-05T22:45:09.406Z,8.03
2023-02-05T22:48:36.947Z,6.80
2023-02-05T22:52:02.743Z,7.20
2023-02-05T22:55:26.895Z,12.80
2023-02-05T22:58:51.552Z,8.63
2023-02-05T23:02:15.384Z,6.37
2023-02-05T23:05:39.695Z,5.90
2023-02-05T23:09:08.124Z,9.10
2023-02-05T23:12:32.014Z,8.07
2023-02-05T23:15:55.801Z,7.90
2023-02-05T23:19:22.411Z,8.00
2023-02-05T23:22:46.152Z,8.83
2023-02-05T23:26:13.118Z,9.60
2023-02-05T23:29:37.536Z,9.73
2023-02-05T23:33:00.988Z,9.70
2023-02-05T23:36:25.583Z,9.70
2023-02-05T23:39:49.914Z,10.53
2023-02-05T23:43:14.711Z,10.47
2023-02-05T23:46:39.160Z,9.53
2023-02-05T23:50:02.616Z,11.37
2023-02-05T23:53:27.355Z,11.53
2023-02-05T23:56:51.900Z,11.80
